createdAt,value
2023-04-13T00:02:11.293Z,12.55
2023-04-13T00:04:36.888Z,12.61
2023-04-13T00:07:04.536Z,12.79
2023-04-13T00:09:31.668Z,12.59
2023-04-13T00:11:58.693Z,12.81
2023-04-13T00:13:08.605Z,12.72
2023-04-13T00:15:37.636Z,12.69
2023-04-13T00:16:47.816Z,12.52
2023-04-13T00:17:57.532Z,12.37
2023-04-13T00:19:07.458Z,12.29
2023-04-13T00:21:34.260Z,12.35
2023-04-13T00:22:47.030Z,12.21
2023-04-13T00:25:14.779Z,12.35
2023-04-13T00:27:43.232Z,12.46
2023-04-13T00:30:15.806Z,12.42
2023-04-13T00:31:24.988Z,12.29
2023-04-13T00:32:36.218Z,12.40
2023-04-13T00:35:01.350Z,12.45
2023-04-13T00:36:12.981Z,12.32
2023-04-13T00:37:23.019Z,12.30
2023-04-13T00:39:46.961Z,12.48
2023-04-13T00:40:56.202Z,12.47
2023-04-13T00:43:26.329Z,12.65
2023-04-13T00:44:39.570Z,12.57
2023-04-13T00:45:49.457Z,12.61
2023-04-13T00:48:13.884Z,12.76
2023-04-13T00:49:23.508Z,12.52
2023-04-13T00:50:34.042Z,12.27
2023-04-13T00:51:48.285Z,12.24
2023-04-13T00:54:14.603Z,12.12
2023-04-13T00:56:45.468Z,11.92
2023-04-13T00:57:56.330Z,11.68
2023-04-13T01:00:24.942Z,11.80
2023-04-13T01:02:56.519Z,11.93
2023-04-13T01:05:22.456Z,12.20
2023-04-13T01:08:09.672Z,12.21
2023-04-13T01:12:33.200Z,12.32
2023-04-13T01:15:12.339Z,12.40
2023-04-13T01:17:44.409Z,12.21
2023-04-13T01:20:13.595Z,12.33
2023-04-13T01:22:57.511Z,12.18
2023-04-13T01:24:23.157Z,12.15
2023-04-13T01:27:19.107Z,12.19
2023-04-13T01:29:48.776Z,12.44
2023-04-13T01:31:01.430Z,12.45
2023-04-13T01:32:12.806Z,12.47
2023-04-13T01:33:25.493Z,12.33
2023-04-13T01:34:36.316Z,12.21
2023-04-13T01:35:50.729Z,12.27
2023-04-13T01:37:03.398Z,12.19
2023-04-13T01:39:29.453Z,12.05
2023-04-13T01:41:57.311Z,11.94
2023-04-13T01:44:25.766Z,11.92
2023-04-13T01:46:57.812Z,12.03
2023-04-13T01:50:12.220Z,12.22
2023-04-13T01:52:58.403Z,12.50
2023-04-13T01:55:38.783Z,12.66
2023-04-13T01:56:49.480Z,12.42
2023-04-13T01:59:18.725Z,12.41
2023-04-13T02:02:17.658Z,12.08
2023-04-13T02:03:27.834Z,11.90
2023-04-13T02:04:36.467Z,11.81
2023-04-13T02:07:02.219Z,11.83
2023-04-13T02:08:15.406Z,11.81
2023-04-13T02:10:45.731Z,11.95
2023-04-13T02:11:55.591Z,11.84
2023-04-13T02:13:04.451Z,11.71
2023-04-13T02:14:15.148Z,11.80
2023-04-13T02:16:40.941Z,12.04
2023-04-13T02:17:49.934Z,12.01
2023-04-13T02:20:17.369Z,12.14
2023-04-13T02:21:26.125Z,12.16
2023-04-13T02:23:56.203Z,12.37
2023-04-13T02:26:28.065Z,12.45
2023-04-13T02:27:39.438Z,12.41
2023-04-13T02:28:51.266Z,12.35
2023-04-13T02:30:01.154Z,12.17
2023-04-13T02:32:27.149Z,12.05
2023-04-13T02:33:39.184Z,11.93
2023-04-13T02:36:03.951Z,11.87
2023-04-13T02:38:31.813Z,11.81
2023-04-13T02:41:00.117Z,11.73
2023-04-13T02:42:10.494Z,11.59
2023-04-13T02:44:38.176Z,11.88
2023-04-13T02:45:47.912Z,11.89
2023-04-13T02:46:58.246Z,11.83
2023-04-13T02:49:26.016Z,12.10
2023-04-13T02:50:38.093Z,12.09
2023-04-13T02:53:06.032Z,12.13
2023-04-13T02:54:15.492Z,12.08
2023-04-13T02:55:26.634Z,12.20
2023-04-13T02:57:56.550Z,12.27
2023-04-13T02:59:07.911Z,12.18
2023-04-13T03:01:33.711Z,12.39
2023-04-13T03:04:00.644Z,12.32
2023-04-13T03:05:10.450Z,12.15
2023-04-13T03:08:50.826Z,12.02
2023-04-13T03:11:22.974Z,11.83
2023-04-13T03:12:34.962Z,11.67
2023-04-13T03:13:44.276Z,11.72
2023-04-13T03:14:53.994Z,11.79
2023-04-13T03:17:21.298Z,12.07
2023-04-13T03:19:48.740Z,12.21
2023-04-13T03:22:21.005Z,12.36
2023-04-13T03:23:31.450Z,12.13
2023-04-13T03:25:56.236Z,12.50
2023-04-13T03:28:21.537Z,12.53
2023-04-13T03:29:30.663Z,12.50
2023-04-13T03:31:56.269Z,12.56
2023-04-13T03:33:05.476Z,12.43
2023-04-13T03:35:33.055Z,12.50
2023-04-13T03:36:43.579Z,12.28
2023-04-13T03:39:08.604Z,12.32
2023-04-13T03:40:21.075Z,12.16
2023-04-13T03:41:32.682Z,12.07
2023-04-13T03:43:58.206Z,12.03
2023-04-13T03:45:10.028Z,11.87
2023-04-13T03:47:36.187Z,11.92
2023-04-13T03:48:46.800Z,11.89
2023-04-13T03:51:13.474Z,12.14
2023-04-13T03:52:41.156Z,12.09
2023-04-13T03:53:51.717Z,11.99
2023-04-13T03:56:18.841Z,12.13
2023-04-13T03:58:45.384Z,12.32
2023-04-13T03:59:57.103Z,12.26
2023-04-13T04:02:26.731Z,12.43
2023-04-13T04:03:38.631Z,12.42
2023-04-13T04:06:07.296Z,12.62
2023-04-13T04:08:36.723Z,12.32
2023-04-13T04:11:04.812Z,12.18
2023-04-13T04:12:16.054Z,11.98
2023-04-13T04:14:41.799Z,12.10
2023-04-13T04:17:11.610Z,12.06
2023-04-13T04:18:21.979Z,12.08
2023-04-13T04:20:47.424Z,12.30
2023-04-13T04:23:14.864Z,12.52
2023-04-13T04:25:43.002Z,12.32
2023-04-13T04:26:53.676Z,12.27
2023-04-13T04:29:25.062Z,12.22
2023-04-13T04:31:53.217Z,12.25
2023-04-13T04:33:04.864Z,12.16
2023-04-13T04:34:16.860Z,12.08
2023-04-13T04:35:30.070Z,12.10
2023-04-13T04:37:58.628Z,12.05
2023-04-13T04:40:25.250Z,12.04
2023-04-13T04:42:52.312Z,11.96
2023-04-13T04:45:29.824Z,11.91
2023-04-13T04:47:59.066Z,11.79
2023-04-13T04:50:26.660Z,11.86
2023-04-13T04:51:41.555Z,11.69
2023-04-13T04:54:08.547Z,11.85
2023-04-13T04:56:33.219Z,11.98
2023-04-13T04:58:58.896Z,12.04
2023-04-13T05:01:34.435Z,12.08
2023-04-13T05:02:51.907Z,12.07
2023-04-13T05:05:17.543Z,12.03
2023-04-13T05:07:42.371Z,12.27
2023-04-13T05:10:08.687Z,12.55
2023-04-13T05:12:36.768Z,12.77
2023-04-13T05:13:45.568Z,12.79
2023-04-13T05:16:18.435Z,12.94
2023-04-13T05:18:47.016Z,12.67
2023-04-13T05:20:24.149Z,12.51
2023-04-13T05:21:34.754Z,12.44
2023-04-13T05:24:00.014Z,12.38
2023-04-13T05:26:27.089Z,12.33
2023-04-13T05:28:52.815Z,12.37
2023-04-13T05:30:04.103Z,12.27
2023-04-13T05:33:41.129Z,12.56
2023-04-13T05:34:51.299Z,12.46
2023-04-13T05:36:03.535Z,12.50
2023-04-13T05:37:15.351Z,12.46
2023-04-13T05:39:42.079Z,12.51
2023-04-13T05:42:08.175Z,12.60
2023-04-13T05:44:35.854Z,12.60
2023-04-13T05:47:01.784Z,12.59
2023-04-13T05:49:28.997Z,12.67
2023-04-13T05:50:40.634Z,12.61
2023-04-13T05:53:09.246Z,12.86
2023-04-13T05:54:20.587Z,12.78
2023-04-13T05:55:32.728Z,12.79
2023-04-13T05:58:03.944Z,12.94
2023-04-13T06:00:32.883Z,12.83
2023-04-13T06:03:03.113Z,12.86
2023-04-13T06:04:14.078Z,12.76
2023-04-13T06:06:39.523Z,12.86
2023-04-13T06:07:48.551Z,12.78
2023-04-13T06:10:16.234Z,12.91
2023-04-13T06:12:42.200Z,12.85
2023-04-13T06:13:50.831Z,12.75
2023-04-13T06:16:19.066Z,12.86
2023-04-13T06:18:42.975Z,12.85
2023-04-13T06:19:52.493Z,12.74
2023-04-13T06:22:16.300Z,12.80
2023-04-13T06:24:39.987Z,12.80
2023-04-13T06:25:51.168Z,12.72
2023-04-13T06:27:04.017Z,12.78
2023-04-13T06:28:12.827Z,12.77
2023-04-13T06:30:38.508Z,12.77
2023-04-13T06:33:05.945Z,12.67
2023-04-13T06:34:16.167Z,12.59
2023-04-13T06:36:40.132Z,12.79
2023-04-13T06:39:03.808Z,12.86
2023-04-13T06:41:50.160Z,12.85
2023-04-13T06:44:21.752Z,12.88
2023-04-13T06:45:35.963Z,12.79
2023-04-13T06:48:02.617Z,12.92
2023-04-13T06:49:14.305Z,12.83
2023-04-13T06:51:40.048Z,12.89
2023-04-13T06:54:07.202Z,12.91
2023-04-13T06:56:33.915Z,13.01
2023-04-13T06:59:02.328Z,13.09
2023-04-13T07:03:16.958Z,13.24
2023-04-13T07:04:29.122Z,13.11
2023-04-13T07:07:13.901Z,13.17
2023-04-13T07:08:25.450Z,12.99
2023-04-13T07:09:34.501Z,13.05
2023-04-13T07:12:04.305Z,13.12
2023-04-13T07:14:37.104Z,13.05
2023-04-13T07:17:02.596Z,12.99
2023-04-13T07:18:13.286Z,12.97
2023-04-13T07:19:24.431Z,13.07
2023-04-13T07:21:50.104Z,13.36
2023-04-13T07:24:13.900Z,13.43
2023-04-13T07:26:41.034Z,13.57
2023-04-13T07:27:50.461Z,13.50
2023-04-13T07:30:16.818Z,13.66
2023-04-13T07:31:27.869Z,13.58
2023-04-13T07:33:54.752Z,13.72
2023-04-13T07:36:22.918Z,13.79
2023-04-13T07:38:47.523Z,13.75
2023-04-13T07:41:15.496Z,13.76
2023-04-13T07:43:40.609Z,13.56
2023-04-13T07:46:12.054Z,13.65
2023-04-13T07:48:38.228Z,13.62
2023-04-13T07:51:03.897Z,13.70
2023-04-13T07:53:29.552Z,13.79
2023-04-13T07:54:38.857Z,13.72
2023-04-13T07:55:49.332Z,13.76
2023-04-13T07:58:14.188Z,13.94
2023-04-13T08:00:38.681Z,14.02
2023-04-13T08:03:24.574Z,14.09
2023-04-13T08:05:49.914Z,14.18
2023-04-13T08:08:20.265Z,14.14
2023-04-13T08:10:47.654Z,13.99
2023-04-13T08:13:16.003Z,14.11
2023-04-13T08:15:39.971Z,13.90
2023-04-13T08:18:05.786Z,14.00
2023-04-13T08:20:29.922Z,13.89
2023-04-13T08:22:58.803Z,13.89
2023-04-13T08:24:07.859Z,13.77
2023-04-13T08:26:32.148Z,13.89
2023-04-13T08:28:58.125Z,13.89
2023-04-13T08:31:25.930Z,13.88
2023-04-13T08:33:52.726Z,13.95
2023-04-13T08:36:18.735Z,14.03
2023-04-13T08:37:29.711Z,13.95
2023-04-13T08:39:57.878Z,13.82
2023-04-13T08:42:27.036Z,13.83
2023-04-13T08:43:36.503Z,13.69
2023-04-13T08:44:46.013Z,13.72
2023-04-13T08:47:11.999Z,13.85
2023-04-13T08:49:41.964Z,13.91
2023-04-13T08:50:58.910Z,13.83
2023-04-13T08:52:11.413Z,13.87
2023-04-13T08:53:22.916Z,13.90
2023-04-13T08:55:52.037Z,13.94
2023-04-13T08:58:23.926Z,13.87
2023-04-13T09:02:08.790Z,13.90
2023-04-13T09:04:44.724Z,13.93
2023-04-13T09:07:21.390Z,14.00
2023-04-13T09:09:52.154Z,13.83
2023-04-13T09:11:02.487Z,13.75
2023-04-13T09:12:11.478Z,13.79
2023-04-13T09:14:37.898Z,14.02
2023-04-13T09:17:07.430Z,14.02
2023-04-13T09:18:18.822Z,13.93
2023-04-13T09:19:33.363Z,13.98
2023-04-13T09:20:56.156Z,14.01
2023-04-13T09:23:28.791Z,13.88
2023-04-13T09:26:09.051Z,13.98
2023-04-13T09:28:49.579Z,14.05
2023-04-13T09:31:16.248Z,14.14
2023-04-13T09:33:48.907Z,14.26
2023-04-13T09:36:22.052Z,14.32
2023-04-13T09:38:54.442Z,14.24
2023-04-13T09:43:09.261Z,14.27
2023-04-13T09:44:20.052Z,14.15
2023-04-13T09:47:01.487Z,13.89
2023-04-13T09:49:43.424Z,13.83
2023-04-13T09:52:23.919Z,13.88
2023-04-13T09:55:02.720Z,13.97
2023-04-13T09:56:12.496Z,13.89
2023-04-13T09:58:47.759Z,14.01
2023-04-13T10:01:16.372Z,13.97
2023-04-13T10:03:42.282Z,13.95
2023-04-13T10:04:52.786Z,13.83
2023-04-13T10:07:22.312Z,13.94
2023-04-13T10:09:47.205Z,13.94
2023-04-13T10:11:00.289Z,13.80
2023-04-13T10:14:48.309Z,13.85
2023-04-13T10:17:39.408Z,13.76
2023-04-13T10:20:19.025Z,13.40
2023-04-13T10:21:35.366Z,13.30
2023-04-13T10:22:45.945Z,13.30
2023-04-13T10:25:25.292Z,13.39
2023-04-13T10:27:57.984Z,13.41
2023-04-13T10:29:09.448Z,13.27
2023-04-13T10:31:39.662Z,13.41
2023-04-13T10:34:11.128Z,13.22
2023-04-13T10:36:42.158Z,13.12
2023-04-13T10:39:17.974Z,13.16
2023-04-13T10:41:43.722Z,13.22
2023-04-13T10:42:53.388Z,13.14
2023-04-13T10:45:27.393Z,13.10
2023-04-13T10:47:53.499Z,13.04
2023-04-13T10:50:24.016Z,13.03
2023-04-13T10:53:06.295Z,13.16
2023-04-13T10:55:35.945Z,13.25
2023-04-13T10:58:16.682Z,13.26
2023-04-13T11:01:00.486Z,13.25
2023-04-13T11:03:29.056Z,13.11
2023-04-13T11:05:58.684Z,13.07
2023-04-13T11:08:27.371Z,13.10
2023-04-13T11:11:15.296Z,13.12
2023-04-13T11:13:46.749Z,12.98
2023-04-13T11:16:12.633Z,12.95
2023-04-13T11:18:36.254Z,12.92
2023-04-13T11:21:18.789Z,12.98
2023-04-13T11:23:53.509Z,13.02
2023-04-13T11:26:38.477Z,13.10
2023-04-13T11:29:11.387Z,13.10
2023-04-13T11:31:40.310Z,13.20
2023-04-13T11:34:16.573Z,13.34
2023-04-13T11:36:44.936Z,13.36
2023-04-13T11:39:15.229Z,13.23
2023-04-13T11:41:44.619Z,13.25
2023-04-13T11:42:55.829Z,13.07
2023-04-13T11:45:23.191Z,13.18
2023-04-13T11:46:33.634Z,13.05
2023-04-13T11:47:44.826Z,12.99
2023-04-13T11:50:13.575Z,12.99
2023-04-13T11:52:42.403Z,13.05
2023-04-13T11:55:21.634Z,13.12
2023-04-13T11:57:37.336Z,13.17
2023-04-13T12:00:11.447Z,13.22
2023-04-13T12:03:00.427Z,13.19
2023-04-13T12:05:26.504Z,13.22
2023-04-13T12:06:40.606Z,13.14
2023-04-13T12:09:11.049Z,12.86
2023-04-13T12:11:46.628Z,12.96
2023-04-13T12:14:49.357Z,12.97
2023-04-13T12:19:30.402Z,12.72
2023-04-13T12:22:00.366Z,12.65
2023-04-13T12:24:40.546Z,12.74
2023-04-13T12:27:19.978Z,12.74
2023-04-13T12:29:46.232Z,12.98
2023-04-13T12:32:24.477Z,12.63
2023-04-13T12:34:50.177Z,12.71
2023-04-13T12:37:14.213Z,12.91
2023-04-13T12:38:25.119Z,12.89
2023-04-13T12:42:12.635Z,13.07
2023-04-13T12:44:39.449Z,13.20
2023-04-13T12:47:06.710Z,13.06
2023-04-13T12:49:31.340Z,13.06
2023-04-13T12:51:55.354Z,13.15
2023-04-13T12:54:19.012Z,13.23
2023-04-13T12:56:42.579Z,13.33
2023-04-13T12:59:07.881Z,13.21
2023-04-13T13:01:36.422Z,13.33
2023-04-13T13:02:45.962Z,13.18
2023-04-13T13:05:11.269Z,13.29
2023-04-13T13:07:56.998Z,13.10
2023-04-13T13:10:29.785Z,13.16
2023-04-13T13:12:50.829Z,13.25
2023-04-13T13:15:17.125Z,13.37
2023-04-13T13:17:43.551Z,13.46
2023-04-13T13:20:11.754Z,13.49
2023-04-13T13:22:36.506Z,13.35
2023-04-13T13:25:07.568Z,13.44
2023-04-13T13:30:06.493Z,13.50
2023-04-13T13:32:30.966Z,13.49
2023-04-13T13:34:57.931Z,13.49
2023-04-13T13:37:23.655Z,13.25
2023-04-13T13:38:35.072Z,13.24
2023-04-13T13:40:59.055Z,13.19
2023-04-13T13:43:31.410Z,13.34
2023-04-13T13:45:57.063Z,13.38
2023-04-13T13:48:25.204Z,13.38
2023-04-13T13:50:51.550Z,13.22
2023-04-13T13:53:16.003Z,12.93
2023-04-13T13:54:25.454Z,12.73
2023-04-13T13:55:34.888Z,12.81
2023-04-13T13:57:59.464Z,13.13
2023-04-13T14:00:25.313Z,13.07
2023-04-13T14:02:50.501Z,13.03
2023-04-13T14:05:17.646Z,13.17
2023-04-13T14:07:44.646Z,13.21
2023-04-13T14:08:56.515Z,13.16
2023-04-13T14:11:23.654Z,13.00
2023-04-13T14:13:49.362Z,13.08
2023-04-13T14:16:12.958Z,13.22
2023-04-13T14:17:23.541Z,13.19
2023-04-13T14:19:47.845Z,13.37
2023-04-13T14:22:17.051Z,13.35
2023-04-13T14:24:40.749Z,13.29
2023-04-13T14:27:05.213Z,13.21
2023-04-13T14:29:29.265Z,13.23
2023-04-13T14:31:56.669Z,13.33
2023-04-13T14:34:22.218Z,13.45
2023-04-13T14:36:49.334Z,13.39
2023-04-13T14:37:57.314Z,13.22
2023-04-13T14:40:23.566Z,13.23
2023-04-13T14:42:50.476Z,13.23
2023-04-13T14:45:14.900Z,13.26
2023-04-13T14:47:43.763Z,13.41
2023-04-13T14:50:09.332Z,13.30
2023-04-13T14:52:34.346Z,13.37
2023-04-13T14:55:02.042Z,13.26
2023-04-13T14:57:28.649Z,13.21
2023-04-13T14:58:39.811Z,13.04
2023-04-13T15:01:08.589Z,12.95
2023-04-13T15:03:33.990Z,12.98
2023-04-13T15:06:03.469Z,12.97
2023-04-13T15:08:26.737Z,13.11
2023-04-13T15:10:53.131Z,13.12
2023-04-13T15:13:19.303Z,13.20
2023-04-13T15:14:29.911Z,13.10
2023-04-13T15:18:06.754Z,13.23
2023-04-13T15:20:50.603Z,13.33
2023-04-13T15:23:19.351Z,13.23
2023-04-13T15:24:28.075Z,13.15
2023-04-13T15:26:53.010Z,13.16
2023-04-13T15:28:02.836Z,13.06
2023-04-13T15:30:30.375Z,13.23
2023-04-13T15:32:56.668Z,13.10
2023-04-13T15:35:26.931Z,13.10
2023-04-13T15:37:54.842Z,13.10
2023-04-13T15:40:27.874Z,12.82
2023-04-13T15:42:52.540Z,12.95
2023-04-13T15:45:18.691Z,13.06
2023-04-13T15:47:43.628Z,13.22
2023-04-13T15:48:54.437Z,13.23
2023-04-13T15:51:22.156Z,13.50
2023-04-13T15:54:07.803Z,13.47
2023-04-13T15:56:32.704Z,13.44
2023-04-13T15:59:16.986Z,13.31
2023-04-13T16:00:27.413Z,13.23
2023-04-13T16:03:03.578Z,13.06
2023-04-13T16:05:28.827Z,13.16
2023-04-13T16:07:55.505Z,13.18
2023-04-13T16:10:19.691Z,13.35
2023-04-13T16:12:45.069Z,13.51
2023-04-13T16:15:13.401Z,13.55
2023-04-13T16:17:40.995Z,13.25
2023-04-13T16:20:13.353Z,13.29
2023-04-13T16:21:23.714Z,13.07
2023-04-13T16:22:34.941Z,12.93
2023-04-13T16:24:58.873Z,12.96
2023-04-13T16:27:22.670Z,13.09
2023-04-13T16:29:46.600Z,13.37
2023-04-13T16:32:12.457Z,13.62
2023-04-13T16:34:36.914Z,13.70
2023-04-13T16:35:46.874Z,13.53
2023-04-13T16:36:57.700Z,13.29
2023-04-13T16:39:21.967Z,13.29
2023-04-13T16:41:48.065Z,12.89
2023-04-13T16:44:32.292Z,12.69
2023-04-13T16:45:41.918Z,12.64
2023-04-13T16:48:28.696Z,12.82
2023-04-13T16:49:37.750Z,12.90
2023-04-13T16:52:03.444Z,13.18
2023-04-13T16:54:47.282Z,13.19
2023-04-13T16:57:13.936Z,13.43
2023-04-13T16:59:40.186Z,13.45
2023-04-13T17:02:05.051Z,13.48
2023-04-13T17:04:28.934Z,13.65
2023-04-13T17:07:01.959Z,13.79
2023-04-13T17:09:28.982Z,13.58
2023-04-13T17:11:53.741Z,13.53
2023-04-13T17:13:02.710Z,13.25
2023-04-13T17:15:28.331Z,13.35
2023-04-13T17:18:01.187Z,13.32
2023-04-13T17:20:26.018Z,13.30
2023-04-13T17:21:35.766Z,12.99
2023-04-13T17:22:46.381Z,13.17
2023-04-13T17:25:10.760Z,12.85
2023-04-13T17:27:37.197Z,13.05
2023-04-13T17:30:02.478Z,13.17
2023-04-13T17:32:27.595Z,13.28
2023-04-13T17:34:52.954Z,13.10
2023-04-13T17:37:18.391Z,13.07
2023-04-13T17:38:27.040Z,13.04
2023-04-13T17:40:51.997Z,13.19
2023-04-13T17:42:01.147Z,12.92
2023-04-13T17:43:10.281Z,12.95
2023-04-13T17:44:21.107Z,12.86
2023-04-13T17:46:45.650Z,12.86
2023-04-13T17:49:11.307Z,13.02
2023-04-13T17:51:36.309Z,13.17
2023-04-13T17:52:46.027Z,12.92
2023-04-13T17:55:10.570Z,12.86
2023-04-13T17:56:20.777Z,12.70
2023-04-13T17:58:45.562Z,12.87
2023-04-13T18:01:11.840Z,13.02
2023-04-13T18:03:36.604Z,13.11
2023-04-13T18:06:01.190Z,13.24
2023-04-13T18:08:19.536Z,13.34
2023-04-13T18:10:44.255Z,13.35
2023-04-13T18:11:53.389Z,13.30
2023-04-13T18:14:16.990Z,13.43
2023-04-13T18:16:40.751Z,13.44
2023-04-13T18:19:05.364Z,13.52
2023-04-13T18:20:21.444Z,13.41
2023-04-13T18:22:47.960Z,13.30
2023-04-13T18:23:59.034Z,13.30
2023-04-13T18:26:24.640Z,13.36
2023-04-13T18:27:33.721Z,13.23
2023-04-13T18:28:43.601Z,13.25
2023-04-13T18:32:22.442Z,13.29
2023-04-13T18:33:32.361Z,13.27
2023-04-13T18:35:58.177Z,13.23
2023-04-13T18:38:23.924Z,13.01
2023-04-13T18:40:51.067Z,12.80
2023-04-13T18:43:15.758Z,12.70
2023-04-13T18:45:43.155Z,12.55
2023-04-13T18:48:09.197Z,12.56
2023-04-13T18:50:33.265Z,12.73
2023-04-13T18:53:00.228Z,13.05
2023-04-13T18:54:10.881Z,13.02
2023-04-13T18:56:34.654Z,12.81
2023-04-13T18:58:59.662Z,12.88
2023-04-13T19:01:26.525Z,12.57
2023-04-13T19:03:53.169Z,12.34
2023-04-13T19:06:18.030Z,11.90
2023-04-13T19:07:28.804Z,11.90
2023-04-13T19:08:37.479Z,12.05
2023-04-13T19:11:01.405Z,12.13
2023-04-13T19:13:25.097Z,12.07
2023-04-13T19:15:48.884Z,12.47
2023-04-13T19:18:14.138Z,12.32
2023-04-13T19:20:39.925Z,12.33
2023-04-13T19:23:10.116Z,12.35
2023-04-13T19:24:19.748Z,12.29
2023-04-13T19:26:45.467Z,12.34
2023-04-13T19:29:13.435Z,12.23
2023-04-13T19:31:39.188Z,12.15
2023-04-13T19:34:06.926Z,12.05
2023-04-13T19:36:32.304Z,12.32
2023-04-13T19:38:56.981Z,12.23
2023-04-13T19:41:26.946Z,12.35
2023-04-13T19:43:52.289Z,12.12
2023-04-13T19:46:16.033Z,12.03
2023-04-13T19:48:41.747Z,12.16
2023-04-13T19:51:07.063Z,12.12
2023-04-13T19:53:31.842Z,11.99
2023-04-13T19:54:40.752Z,12.09
2023-04-13T19:57:06.911Z,12.31
2023-04-13T19:59:31.246Z,12.04
2023-04-13T20:01:58.401Z,12.10
2023-04-13T20:04:24.713Z,12.39
2023-04-13T20:07:10.523Z,12.03
2023-04-13T20:09:34.970Z,12.22
2023-04-13T20:12:00.371Z,12.37
2023-04-13T20:13:10.226Z,12.22
2023-04-13T20:15:35.463Z,12.22
2023-04-13T20:17:59.668Z,12.24
2023-04-13T20:19:12.444Z,12.32
2023-04-13T20:21:42.053Z,12.18
2023-04-13T20:22:51.886Z,12.15
2023-04-13T20:25:16.729Z,12.16
2023-04-13T20:26:28.092Z,11.82
2023-04-13T20:30:15.880Z,12.20
2023-04-13T20:32:41.519Z,12.06
2023-04-13T20:35:08.672Z,11.96
2023-04-13T20:37:36.271Z,11.96
2023-04-13T20:40:02.439Z,11.93
2023-04-13T20:42:32.640Z,11.94
2023-04-13T20:44:58.081Z,12.00
2023-04-13T20:47:27.814Z,11.75
2023-04-13T20:51:15.272Z,12.10
2023-04-13T20:53:46.255Z,12.10
2023-04-13T20:54:56.796Z,12.08
2023-04-13T20:57:22.838Z,11.83
2023-04-13T20:59:51.390Z,12.07
2023-04-13T21:02:17.511Z,12.30
2023-04-13T21:04:45.364Z,12.04
2023-04-13T21:07:13.951Z,12.26
2023-04-13T21:08:28.077Z,11.93
2023-04-13T21:10:54.032Z,12.27
2023-04-13T21:13:21.253Z,12.42
2023-04-13T21:15:47.833Z,12.28
2023-04-13T21:18:12.718Z,12.37
2023-04-13T21:20:41.983Z,12.36
2023-04-13T21:23:11.975Z,12.22
2023-04-13T21:25:37.547Z,12.54
2023-04-13T21:26:47.528Z,12.27
2023-04-13T21:27:58.269Z,12.23
2023-04-13T21:29:08.185Z,12.32
2023-04-13T21:31:32.756Z,12.50
2023-04-13T21:34:00.350Z,12.57
2023-04-13T21:38:53.978Z,12.47
2023-04-13T21:41:21.424Z,12.76
2023-04-13T21:42:31.405Z,12.68
2023-04-13T21:44:58.712Z,12.75
2023-04-13T21:47:22.860Z,12.81
2023-04-13T21:49:48.421Z,12.53
2023-04-13T21:50:58.017Z,12.37
2023-04-13T21:53:25.710Z,12.19
2023-04-13T21:55:49.251Z,12.14
2023-04-13T21:58:12.990Z,11.89
2023-04-13T22:00:39.713Z,11.77
2023-04-13T22:03:04.313Z,11.79
2023-04-13T22:05:30.122Z,11.58
2023-04-13T22:07:55.219Z,11.59
2023-04-13T22:10:20.726Z,11.78
2023-04-13T22:12:44.784Z,12.11
2023-04-13T22:13:54.120Z,12.13
2023-04-13T22:16:39.706Z,12.25
2023-04-13T22:19:03.859Z,12.20
2023-04-13T22:20:14.774Z,12.22
2023-04-13T22:21:24.784Z,12.22
2023-04-13T22:22:33.901Z,12.09
2023-04-13T22:24:57.538Z,12.09
2023-04-13T22:27:23.386Z,11.91
2023-04-13T22:29:48.707Z,11.80
2023-04-13T22:32:16.424Z,11.47
2023-04-13T22:34:44.114Z,11.58
2023-04-13T22:35:53.747Z,11.40
2023-04-13T22:38:19.624Z,11.51
2023-04-13T22:41:06.785Z,11.67
2023-04-13T22:43:32.308Z,11.55
2023-04-13T22:46:17.907Z,11.75
2023-04-13T22:48:41.709Z,11.84
2023-04-13T22:49:50.588Z,11.87
2023-04-13T22:51:00.790Z,11.73
2023-04-13T22:53:27.370Z,12.13
2023-04-13T22:55:51.067Z,12.24
2023-04-13T22:57:05.205Z,12.06
2023-04-13T22:58:14.035Z,12.09
2023-04-13T22:59:25.372Z,12.07
2023-04-13T23:01:50.413Z,12.24
2023-04-13T23:03:00.319Z,12.03
2023-04-13T23:05:24.258Z,12.13
2023-04-13T23:07:51.816Z,11.94
2023-04-13T23:09:01.711Z,11.65
2023-04-13T23:11:26.911Z,11.39
2023-04-13T23:13:56.690Z,11.63
2023-04-13T23:16:24.154Z,11.56
2023-04-13T23:18:48.904Z,11.50
2023-04-13T23:22:46.797Z,11.82
2023-04-13T23:23:55.991Z,11.64
2023-04-13T23:26:42.295Z,11.85
2023-04-13T23:29:07.189Z,11.96
2023-04-13T23:31:33.131Z,12.10
2023-04-13T23:33:58.517Z,12.23
2023-04-13T23:36:25.148Z,12.04
2023-04-13T23:38:49.253Z,11.94
2023-04-13T23:41:13.919Z,11.93
2023-04-13T23:42:23.768Z,11.66
2023-04-13T23:44:48.755Z,11.65
2023-04-13T23:47:16.952Z,11.69
2023-04-13T23:49:51.348Z,11.60
2023-04-13T23:52:15.422Z,11.35
2023-04-13T23:54:41.293Z,11.17
2023-04-13T23:57:05.908Z,11.38
2023-04-13T23:58:15.513Z,11.41
